Time;durP1;ratioP1;P1;durP2;ratioP2;P2;SDS_P1;SDS_P2;PMS_P1;PMS_P2;Temp;Humidity;BMP_temperature;BMP_pressure;BME280_temperature;BME280_humidity;BME280_pressure;Samples;Min_cycle;Max_cycle;Signal;HPM_P1;HPM_P2
2023/07/02 00:01:46;;;;;;;4.40;2.58;;;;;;;13.71;90.29;100179.81;5079085;28;20147;-77
2023/07/02 00:04:16;;;;;;;6.85;3.38;;;;;;;13.68;90.12;100177.72;5056820;28;20907;-75
2023/07/02 00:06:46;;;;;;;6.03;3.42;;;;;;;13.61;90.69;100181.63;5077257;28;20028;-75
2023/07/02 00:09:12;;;;;;;7.45;3.60;;;;;;;13.64;90.32;100185.63;5056573;28;20039;-77
2023/07/02 00:11:39;;;;;;;4.75;2.95;;;;;;;13.62;90.06;100177.06;5069538;28;20480;-77
2023/07/02 00:14:09;;;;;;;7.32;3.60;;;;;;;13.57;90.01;100185.25;5065391;28;20023;-75
2023/07/02 00:16:38;;;;;;;8.27;3.72;;;;;;;13.55;90.21;100192.81;5086799;28;20040;-77
2023/07/02 00:19:04;;;;;;;7.93;4.15;;;;;;;13.51;90.45;100181.06;5085353;28;20451;-76
2023/07/02 00:21:33;;;;;;;7.57;3.20;;;;;;;13.48;90.67;100177.09;5050299;28;20082;-76
2023/07/02 00:24:00;;;;;;;7.28;3.28;;;;;;;13.44;90.90;100180.69;5074158;28;20028;-76
2023/07/02 00:26:27;;;;;;;8.63;3.22;;;;;;;13.43;91.09;100181.78;5048008;28;20039;-77
2023/07/02 00:28:54;;;;;;;6.22;4.10;;;;;;;13.45;91.46;100174.22;5077283;28;20095;-76
2023/07/02 00:31:20;;;;;;;9.50;3.33;;;;;;;13.46;91.17;100179.28;5049681;28;20175;-77
2023/07/02 00:33:47;;;;;;;7.13;3.30;;;;;;;13.47;91.21;100178.19;5062834;28;20172;-76
2023/07/02 00:36:14;;;;;;;8.18;4.40;;;;;;;13.47;91.39;100180.88;5063074;28;20128;-78
2023/07/02 00:38:48;;;;;;;6.63;3.25;;;;;;;13.46;91.69;100178.47;5049294;28;20069;-76
2023/07/02 00:41:14;;;;;;;11.85;5.00;;;;;;;13.49;92.24;100180.59;5069242;28;20633;-76
2023/07/02 00:43:43;;;;;;;5.90;3.65;;;;;;;13.49;92.45;100185.97;5052104;28;20039;-73
2023/07/02 00:46:17;;;;;;;10.68;5.60;;;;;;;13.53;93.08;100179.66;5048623;28;20144;-79
2023/07/02 00:48:45;;;;;;;6.75;4.28;;;;;;;13.56;93.01;100179.06;5065620;28;20028;-77
2023/07/02 00:51:27;;;;;;;8.77;4.90;;;;;;;13.61;93.30;100170.84;5077237;28;20088;-77
2023/07/02 00:53:56;;;;;;;7.15;3.60;;;;;;;13.60;93.59;100165.78;5057017;28;20486;-78
2023/07/02 00:56:23;;;;;;;9.00;4.75;;;;;;;13.65;93.41;100173.75;5062505;28;20034;-76
2023/07/02 00:58:50;;;;;;;9.23;5.03;;;;;;;13.68;93.51;100175.81;5068542;28;20792;-78
2023/07/02 01:01:33;;;;;;;9.63;4.88;;;;;;;13.71;93.47;100180.63;5064854;28;20033;-77
2023/07/02 01:04:01;;;;;;;7.82;4.35;;;;;;;13.74;93.44;100174.63;5063909;28;20494;-75
2023/07/02 01:06:32;;;;;;;6.55;4.03;;;;;;;13.75;93.48;100161.94;5081025;28;20043;-77
2023/07/02 01:09:04;;;;;;;8.23;4.20;;;;;;;13.77;93.33;100157.88;5064211;28;20032;-77
2023/07/02 01:11:32;;;;;;;5.22;3.38;;;;;;;13.80;93.29;100154.56;5081219;28;20093;-77
2023/07/02 01:14:02;;;;;;;8.75;3.75;;;;;;;13.82;93.03;100170.44;5083844;28;20024;-77
2023/07/02 01:16:32;;;;;;;5.95;3.00;;;;;;;13.83;92.85;100174.72;5075744;28;20557;-77
2023/07/02 01:19:04;;;;;;;12.85;4.68;;;;;;;13.82;92.74;100176.59;5051460;28;20625;-77
2023/07/02 01:21:33;;;;;;;8.32;5.07;;;;;;;13.76;92.58;100167.06;5042261;28;20039;-76
2023/07/02 01:24:00;;;;;;;8.82;4.53;;;;;;;13.76;92.76;100172.44;5076549;28;20046;-74
2023/07/02 01:26:33;;;;;;;6.72;3.65;;;;;;;13.77;92.84;100178.63;5057666;28;20407;-77
2023/07/02 01:29:20;;;;;;;8.48;4.43;;;;;;;13.78;92.79;100169.44;5059863;28;20036;-76
2023/07/02 01:31:47;;;;;;;7.95;4.43;;;;;;;13.75;92.90;100168.16;5077234;28;20082;-76
2023/07/02 01:34:13;;;;;;;6.75;5.03;;;;;;;13.73;93.11;100174.94;5051243;28;20038;-74
2023/07/02 01:36:40;;;;;;;11.43;4.07;;;;;;;13.74;92.90;100168.44;5050405;28;20111;-75
2023/07/02 01:39:05;;;;;;;;;;;;;;;13.75;93.09;100173.53;5056161;28;20028;-75
2023/07/02 01:41:51;;;;;;;7.70;3.47;;;;;;;13.73;92.81;100173.03;5055145;28;20028;-76
2023/07/02 01:44:17;;;;;;;7.88;3.53;;;;;;;13.73;92.55;100175.72;5064987;28;20061;-76
2023/07/02 01:46:44;;;;;;;7.53;3.53;;;;;;;13.75;92.57;100178.09;5047970;28;20055;-77
2023/07/02 01:49:11;;;;;;;8.20;4.82;;;;;;;13.76;92.63;100175.13;5064393;28;20105;-77
2023/07/02 01:51:38;;;;;;;9.85;4.05;;;;;;;13.73;92.99;100166.84;5066638;28;20067;-76
2023/07/02 01:54:04;;;;;;;7.28;4.28;;;;;;;13.75;92.86;100178.91;5052306;28;20047;-76
2023/07/02 01:56:30;;;;;;;7.43;3.60;;;;;;;13.77;92.92;100170.53;5044136;28;20127;-78
2023/07/02 01:58:55;;;;;;;6.03;4.35;;;;;;;13.77;93.07;100176.72;5062747;28;20120;-76
2023/07/02 02:01:21;;;;;;;11.48;5.07;;;;;;;13.69;92.93;100169.38;5042464;28;20046;-78
2023/07/02 02:03:47;;;;;;;6.45;4.00;;;;;;;13.68;93.14;100181.22;5049891;28;20032;-79
2023/07/02 02:06:12;;;;;;;8.80;4.60;;;;;;;13.68;92.88;100175.81;5062479;28;20040;-77
2023/07/02 02:08:38;;;;;;;8.00;4.22;;;;;;;13.68;92.71;100172.34;5083768;28;20042;-79
2023/07/02 02:11:04;;;;;;;6.85;4.03;;;;;;;13.65;92.72;100171.06;5070616;28;20491;-78
2023/07/02 02:13:30;;;;;;;7.45;4.07;;;;;;;13.63;92.92;100168.69;5049434;28;20109;-77
2023/07/02 02:15:56;;;;;;;7.18;4.30;;;;;;;13.63;92.66;100182.13;5081815;28;20027;-78
2023/07/02 02:18:22;;;;;;;9.10;4.72;;;;;;;13.62;92.66;100190.53;5065371;28;20070;-77
2023/07/02 02:20:48;;;;;;;8.23;4.03;;;;;;;13.60;92.51;100173.88;5048757;28;20031;-78
2023/07/02 02:23:14;;;;;;;9.15;4.82;;;;;;;13.57;92.32;100182.56;5050619;28;20035;-78
2023/07/02 02:25:40;;;;;;;7.30;4.20;;;;;;;13.58;92.69;100186.81;5072728;28;20088;-77
2023/07/02 02:28:07;;;;;;;10.55;4.93;;;;;;;13.57;92.84;100177.16;5068036;28;20024;-78
2023/07/02 02:30:32;;;;;;;7.88;4.32;;;;;;;13.60;93.21;100179.25;5053500;28;20036;-76
2023/07/02 02:32:58;;;;;;;7.72;4.18;;;;;;;13.58;93.27;100159.94;5083146;28;20036;-77
2023/07/02 02:35:26;;;;;;;9.15;5.15;;;;;;;13.60;93.40;100179.25;5067454;28;20424;-77
2023/07/02 02:37:55;;;;;;;8.68;5.18;;;;;;;13.64;93.66;100185.63;5082655;28;20047;-77
2023/07/02 02:40:21;;;;;;;9.57;5.32;;;;;;;13.64;93.77;100185.63;5067469;28;20070;-76
2023/07/02 02:42:47;;;;;;;5.43;3.67;;;;;;;13.64;93.57;100180.25;5084627;28;20486;-75
2023/07/02 02:45:14;;;;;;;12.93;5.40;;;;;;;13.67;93.80;100190.38;5038786;28;20044;-74
2023/07/02 02:47:40;;;;;;;11.48;4.32;;;;;;;13.70;93.86;100180.94;5052518;28;20070;-78
2023/07/02 02:50:07;;;;;;;7.63;4.85;;;;;;;13.72;93.99;100186.78;5070369;28;20047;-77
2023/07/02 02:52:33;;;;;;;8.98;5.05;;;;;;;13.68;94.08;100181.22;5084698;28;20118;-78
2023/07/02 02:54:58;;;;;;;9.75;4.40;;;;;;;13.68;93.51;100175.81;5050052;28;20123;-78
2023/07/02 02:57:24;;;;;;;8.18;5.50;;;;;;;13.62;93.80;100175.16;5066503;28;20504;-76
2023/07/02 02:59:50;;;;;;;7.63;4.43;;;;;;;13.65;93.88;100185.31;5056638;28;20047;-76
2023/07/02 03:02:16;;;;;;;8.93;4.85;;;;;;;13.65;93.41;100184.53;5075123;28;20394;-76
2023/07/02 03:04:44;;;;;;;11.90;4.78;;;;;;;13.68;93.26;100191.97;5056686;28;20115;-76
2023/07/02 03:07:10;;;;;;;11.27;4.53;;;;;;;13.67;92.75;100190.38;5087640;28;20118;-77
2023/07/02 03:09:36;;;;;;;10.32;4.43;;;;;;;13.64;93.06;100191.00;5082045;28;20210;-77
2023/07/02 03:12:02;;;;;;;8.95;4.38;;;;;;;13.64;92.61;100191.78;5069534;28;20050;-79
2023/07/02 03:14:28;;;;;;;11.40;4.90;;;;;;;13.61;92.56;100199.66;5071527;28;20407;-77
2023/07/02 03:16:54;;;;;;;10.82;3.97;;;;;;;13.54;92.36;100197.38;5089933;28;20020;-77
2023/07/02 03:19:20;;;;;;;12.25;5.30;;;;;;;13.52;92.38;100198.78;5085221;28;20403;-76
2023/07/02 03:21:45;;;;;;;8.90;4.43;;;;;;;13.51;92.52;100192.63;5069340;28;20042;-76
2023/07/02 03:24:13;;;;;;;8.57;4.47;;;;;;;13.49;92.54;100194.03;5096987;28;20027;-76
2023/07/02 03:26:45;;;;;;;10.00;4.25;;;;;;;13.45;92.35;100198.41;5071883;28;20131;-77
2023/07/02 03:29:13;;;;;;;6.18;4.20;;;;;;;13.44;93.03;100192.25;5087047;28;20031;-81
2023/07/02 03:31:39;;;;;;;5.40;3.72;;;;;;;13.43;92.59;100206.00;5071453;28;20035;-76
2023/07/02 03:34:09;;;;;;;8.43;4.80;;;;;;;13.44;92.82;100199.50;5089828;28;20389;-77
2023/07/02 03:36:36;;;;;;;6.72;3.70;;;;;;;13.38;92.55;100205.00;5072141;28;20043;-77
2023/07/02 03:39:03;;;;;;;10.82;5.93;;;;;;;13.38;93.25;100204.19;5069750;28;20032;-80
2023/07/02 03:41:29;;;;;;;9.73;4.78;;;;;;;13.39;92.97;100190.44;5059188;28;20044;-77
2023/07/02 03:43:55;;;;;;;12.68;4.00;;;;;;;13.39;92.84;100195.81;5074331;23;20064;-77
2023/07/02 03:46:20;;;;;;;11.05;5.82;;;;;;;13.41;92.65;100203.59;5024899;28;20123;-77
2023/07/02 03:48:46;;;;;;;;;;;;;;;13.37;93.17;100200.72;5048276;28;20032;-77
2023/07/02 03:51:14;;;;;;;10.57;5.15;;;;;;;13.37;93.52;100203.41;5035603;28;20555;-76
2023/07/02 03:53:42;;;;;;;7.40;4.22;;;;;;;13.38;93.44;100205.00;5024781;28;20028;-78
2023/07/02 03:56:08;;;;;;;8.63;4.25;;;;;;;13.39;93.40;100189.66;5031357;28;20052;-77
2023/07/02 03:58:33;;;;;;;9.13;4.10;;;;;;;13.39;93.53;100190.44;5046994;28;20036;-80
2023/07/02 04:00:59;;;;;;;11.30;5.10;;;;;;;13.41;93.31;100194.72;5047589;28;20037;-75
2023/07/02 04:03:25;;;;;;;13.02;5.60;;;;;;;13.46;92.78;100194.63;5028564;28;20025;-79
2023/07/02 04:05:51;;;;;;;;;;;;;;;13.51;91.93;100197.22;5040521;28;20067;-78
2023/07/02 04:08:17;;;;;;;11.75;5.30;;;;;;;13.48;92.87;100192.41;5043638;28;20235;-77
2023/07/02 04:10:43;;;;;;;11.43;4.68;;;;;;;13.50;92.87;100201.00;5025036;28;20037;-77
2023/07/02 04:13:09;;;;;;;11.18;4.80;;;;;;;13.51;92.77;100205.28;5025519;28;20294;-79
2023/07/02 04:15:35;;;;;;;11.50;5.18;;;;;;;13.49;93.12;100199.41;5028995;28;20036;-77
2023/07/02 04:18:01;;;;;;;11.48;5.25;;;;;;;13.49;93.32;100208.28;5033790;28;20037;-77
2023/07/02 04:20:28;;;;;;;12.32;5.80;;;;;;;13.54;93.33;100207.34;5024300;28;20079;-76
2023/07/02 04:22:54;;;;;;;12.02;5.40;;;;;;;13.59;91.91;100210.72;5033732;28;20083;-79
2023/07/02 04:25:23;;;;;;;11.75;5.47;;;;;;;13.64;92.31;100218.69;5031935;28;20044;-76
2023/07/02 04:27:49;;;;;;;11.10;5.05;;;;;;;13.66;92.49;100213.81;5043444;28;20036;-79
2023/07/02 04:30:15;;;;;;;8.43;4.63;;;;;;;13.69;92.79;100209.72;5011299;28;20040;-77
2023/07/02 04:32:41;;;;;;;12.80;5.25;;;;;;;13.72;92.58;100211.00;5048192;28;20024;-79
2023/07/02 04:35:08;;;;;;;13.55;6.20;;;;;;;13.73;93.49;100209.91;5015121;28;20041;-79
2023/07/02 04:37:35;;;;;;;8.75;4.45;;;;;;;13.74;93.17;100217.66;5031492;28;21254;-80
2023/07/02 04:40:03;;;;;;;12.93;5.22;;;;;;;13.75;93.32;100210.38;5022249;28;20036;-79
2023/07/02 04:42:31;;;;;;;13.70;6.22;;;;;;;13.79;92.48;100206.81;5022194;28;20787;-79
2023/07/02 04:45:02;;;;;;;9.30;4.50;;;;;;;13.83;92.21;100221.25;5053660;28;20246;-82
2023/07/02 04:47:28;;;;;;;16.88;5.65;;;;;;;13.86;92.77;100223.31;5026693;28;20488;-78
2023/07/02 04:49:54;;;;;;;14.80;5.97;;;;;;;13.88;92.13;100209.56;5032085;28;20041;-78
2023/07/02 04:52:20;;;;;;;13.80;5.50;;;;;;;13.90;92.26;100210.06;5026900;28;20040;-77
2023/07/02 04:54:46;;;;;;;11.05;5.28;;;;;;;13.92;92.35;100211.34;5023471;28;20036;-80
2023/07/02 04:57:13;;;;;;;11.57;5.22;;;;;;;13.94;92.64;100222.59;5038360;28;20043;-79
2023/07/02 04:59:38;;;;;;;15.27;5.10;;;;;;;13.99;91.69;100223.59;5024149;28;20036;-79
2023/07/02 05:02:04;;;;;;;15.05;5.95;;;;;;;14.01;91.60;100221.38;5038741;28;20032;-78
2023/07/02 05:04:29;;;;;;;18.13;6.00;;;;;;;14.05;91.47;100227.75;5050296;28;20866;-79
2023/07/02 05:06:55;;;;;;;18.27;6.30;;;;;;;14.08;91.39;100219.06;5027065;28;20393;-77
2023/07/02 05:09:21;;;;;;;13.88;6.45;;;;;;;14.11;91.33;100215.78;5041631;28;20048;-78
2023/07/02 05:11:47;;;;;;;15.05;5.60;;;;;;;14.13;90.50;100221.63;5049579;28;20032;-80
2023/07/02 05:14:12;;;;;;;11.07;4.80;;;;;;;14.18;88.45;100221.53;5040635;28;20799;-78
2023/07/02 05:16:38;;;;;;;14.57;5.55;;;;;;;14.22;90.32;100219.78;5032097;28;20033;-77
2023/07/02 05:19:03;;;;;;;25.52;6.60;;;;;;;14.23;90.47;100229.50;5010132;28;20059;-77
2023/07/02 05:21:29;;;;;;;16.95;6.38;;;;;;;14.28;91.10;100226.66;5022569;28;20033;-78
2023/07/02 05:23:55;;;;;;;16.17;5.82;;;;;;;14.31;91.32;100215.28;5029087;28;20039;-79
2023/07/02 05:26:21;;;;;;;13.63;5.72;;;;;;;14.36;91.09;100219.72;5047453;28;20033;-78
2023/07/02 05:28:48;;;;;;;15.68;6.30;;;;;;;14.36;91.73;100223.25;5043480;28;20037;-78
2023/07/02 05:31:14;;;;;;;18.05;6.13;;;;;;;14.42;89.52;100227.38;5022273;28;20036;-78
2023/07/02 05:33:39;;;;;;;15.20;6.60;;;;;;;14.48;90.15;100228.09;5028323;28;20063;-78
2023/07/02 05:36:05;;;;;;;15.85;6.05;;;;;;;14.53;91.22;100227.97;5033845;28;20173;-77
2023/07/02 05:38:32;;;;;;;12.68;6.38;;;;;;;14.57;90.69;100238.94;5016440;28;20072;-78
2023/07/02 05:40:57;;;;;;;19.60;6.65;;;;;;;14.65;89.45;100235.47;5029153;28;20492;-78
2023/07/02 05:43:23;;;;;;;18.50;7.20;;;;;;;14.69;90.05;100241.84;5026297;28;20040;-77
2023/07/02 05:45:51;;;;;;;15.25;6.10;;;;;;;14.73;88.70;100229.34;5016946;28;20037;-77
2023/07/02 05:48:16;;;;;;;16.80;6.28;;;;;;;14.82;86.61;100235.56;5040908;28;20039;-79
2023/07/02 05:50:42;;;;;;;19.85;5.80;;;;;;;14.89;88.95;100232.41;5014401;28;20478;-77
2023/07/02 05:53:09;;;;;;;21.27;6.22;;;;;;;14.92;88.52;100243.38;5055618;28;20016;-76
2023/07/02 05:55:34;;;;;;;16.95;6.72;;;;;;;14.98;87.19;100238.66;5043562;28;20048;-79
2023/07/02 05:58:02;;;;;;;19.52;6.40;;;;;;;15.09;87.85;100239.16;5044669;28;20033;-77
2023/07/02 06:00:29;;;;;;;19.23;6.75;;;;;;;15.15;87.77;100252.19;5047156;28;20061;-78
2023/07/02 06:02:55;;;;;;;16.27;6.13;;;;;;;15.21;87.49;100250.16;5035848;28;20032;-77
2023/07/02 06:05:20;;;;;;;21.35;6.43;;;;;;;15.29;87.08;100238.59;5044528;28;20033;-79
2023/07/02 06:07:46;;;;;;;21.70;7.05;;;;;;;15.37;87.83;100250.53;5046285;28;20061;-78
2023/07/02 06:10:14;;;;;;;;;;;;;;;15.40;88.14;100237.22;5046263;28;20110;-78
2023/07/02 06:12:40;;;;;;;17.60;6.22;;;;;;;15.48;86.41;100236.44;5037923;28;19917;-76
2023/07/02 06:15:06;;;;;;;17.42;6.90;;;;;;;15.48;84.77;100231.03;5028947;28;20025;-77
2023/07/02 06:17:31;;;;;;;;;;;;;;;15.62;86.08;100246.34;5042260;28;20032;-77
2023/07/02 06:19:57;;;;;;;14.70;6.22;;;;;;;15.62;85.41;100240.94;5051471;28;20405;-77
2023/07/02 06:22:23;;;;;;;23.63;6.82;;;;;;;15.48;82.33;100228.34;5029357;28;20056;-78
2023/07/02 06:24:49;;;;;;;22.27;6.80;;;;;;;15.59;84.03;100234.25;5033186;28;20039;-78
2023/07/02 06:27:14;;;;;;;19.73;5.85;;;;;;;15.67;81.07;100238.88;5029580;28;20231;-77
2023/07/02 06:29:42;;;;;;;15.75;6.50;;;;;;;15.76;82.82;100233.50;5062528;28;20040;-77
2023/07/02 06:32:08;;;;;;;21.83;6.28;;;;;;;15.89;86.10;100243.34;5027539;28;20033;-76
2023/07/02 06:34:33;;;;;;;18.92;6.80;;;;;;;15.93;81.34;100246.22;5030618;28;20044;-76
2023/07/02 06:36:59;;;;;;;;;;;;;;;16.03;79.42;100240.50;5038911;28;20052;-76
2023/07/02 06:39:25;;;;;;;21.77;7.15;;;;;;;16.14;80.77;100244.47;5035651;28;19921;-79
2023/07/02 06:41:51;;;;;;;23.38;6.90;;;;;;;16.26;79.52;100243.84;5045848;28;20480;-76
2023/07/02 06:44:17;;;;;;;19.83;6.88;;;;;;;16.35;82.15;100252.72;5032961;28;20040;-78
2023/07/02 06:46:45;;;;;;;21.10;6.63;;;;;;;16.35;78.28;100245.41;5020792;28;20040;-75
2023/07/02 06:49:11;;;;;;;23.05;7.25;;;;;;;16.46;79.83;100256.69;5034586;28;20173;-77
2023/07/02 06:51:37;;;;;;;17.95;6.72;;;;;;;16.49;80.90;100263.34;5013434;28;20064;-74
2023/07/02 06:54:02;;;;;;;18.20;6.90;;;;;;;16.59;81.36;100263.78;5041408;28;20521;-78
2023/07/02 06:56:28;;;;;;;;;;;;;;;16.63;77.42;100264.75;5028072;28;20032;-75
2023/07/02 06:58:54;;;;;;;15.95;7.45;;;;;;;16.74;80.91;100269.84;5037414;28;19912;-75
2023/07/02 07:01:19;;;;;;;22.20;7.32;;;;;;;16.85;78.59;100271.88;5025705;28;20032;-76
2023/07/02 07:03:45;;;;;;;20.73;6.68;;;;;;;16.90;82.32;100276.31;5022424;28;20155;-77
2023/07/02 07:06:11;;;;;;;23.23;7.38;;;;;;;16.85;80.65;100281.91;5023020;28;20119;-78
2023/07/02 07:08:38;;;;;;;21.13;7.50;;;;;;;16.92;76.86;100291.09;5043613;28;20367;-76
2023/07/02 07:11:04;;;;;;;16.27;6.30;;;;;;;17.03;78.28;100283.44;5042750;28;20758;-75
2023/07/02 07:13:30;;;;;;;;;;;;;;;17.08;78.80;100285.97;5035738;28;20025;-76
2023/07/02 07:15:55;;;;;;;15.13;5.97;;;;;;;17.22;77.86;100304.69;5024693;28;20287;-77
2023/07/02 07:18:21;;;;;;;16.52;5.97;;;;;;;17.36;74.57;100307.19;5024702;28;20044;-80
2023/07/02 07:20:47;;;;;;;;;;;;;;;17.40;78.08;100300.00;5025749;28;20124;-77
2023/07/02 07:23:12;;;;;;;21.00;6.97;;;;;;;17.42;79.44;100295.06;5020964;28;19916;-77
2023/07/02 07:25:38;;;;;;;18.95;7.47;;;;;;;17.38;75.62;100289.50;5033037;28;20037;-77
2023/07/02 07:28:03;;;;;;;21.33;6.65;;;;;;;17.36;75.14;100288.25;5005393;28;20045;-76
2023/07/02 07:30:29;;;;;;;;;;;;;;;17.27;77.80;100299.09;5021250;28;20064;-75
2023/07/02 07:32:56;;;;;;;24.38;6.65;;;;;;;16.86;72.78;100289.69;5045417;28;19921;-76
2023/07/02 07:35:21;;;;;;;17.77;6.78;;;;;;;16.86;78.20;100303.19;5025625;28;20044;-77
2023/07/02 07:37:47;;;;;;;18.00;7.05;;;;;;;16.73;79.04;100298.00;5045861;28;20054;-76
2023/07/02 07:40:14;;;;;;;15.07;6.03;;;;;;;16.70;77.16;100312.16;5020624;28;20190;-77
2023/07/02 07:42:41;;;;;;;18.73;6.28;;;;;;;16.50;72.58;100308.19;5033838;28;20029;-78
2023/07/02 07:45:09;;;;;;;17.73;6.93;;;;;;;16.57;75.85;100320.09;5032694;28;20029;-77
2023/07/02 07:47:34;;;;;;;26.20;7.95;;;;;;;16.55;73.70;100306.09;5037821;28;20045;-77
2023/07/02 07:50:00;;;;;;;18.95;6.10;;;;;;;16.60;74.08;100308.66;5010862;28;20041;-77
2023/07/02 07:52:25;;;;;;;;;;;;;;;16.74;76.95;100313.91;5027379;28;20120;-77
2023/07/02 07:54:51;;;;;;;14.27;5.85;;;;;;;16.75;76.44;100309.28;5040451;28;20634;-78
2023/07/02 07:57:17;;;;;;;21.10;6.55;;;;;;;16.76;75.51;100316.28;5025540;28;20064;-75
2023/07/02 07:59:42;;;;;;;15.85;6.35;;;;;;;16.74;74.89;100308.50;5020531;28;20034;-76
2023/07/02 08:02:09;;;;;;;17.08;6.75;;;;;;;16.74;77.27;100319.31;5044120;28;20558;-77
2023/07/02 08:04:34;;;;;;;14.30;6.78;;;;;;;16.79;75.43;100315.63;5024725;28;20044;-77
2023/07/02 08:07:00;;;;;;;17.50;6.00;;;;;;;16.99;74.06;100322.28;5022126;28;20049;-75
2023/07/02 08:09:26;;;;;;;16.90;6.10;;;;;;;17.19;72.81;100313.47;5040979;28;20386;-75
2023/07/02 08:11:51;;;;;;;15.95;6.32;;;;;;;17.33;74.23;100318.66;5041182;28;20033;-74
2023/07/02 08:14:20;;;;;;;14.40;5.90;;;;;;;17.49;69.54;100324.34;5027361;28;20049;-77
2023/07/02 08:16:45;;;;;;;17.92;6.55;;;;;;;17.62;71.31;100320.59;5025607;28;20065;-75
2023/07/02 08:19:11;;;;;;;15.85;6.38;;;;;;;17.67;74.66;100314.97;5038501;28;20435;-78
2023/07/02 08:21:37;;;;;;;15.52;6.22;;;;;;;17.66;69.45;100324.22;5007356;28;20040;-79
2023/07/02 08:24:03;;;;;;;;;;;;;;;17.78;69.47;100305.41;5042035;28;20038;-78
2023/07/02 08:26:30;;;;;;;13.25;5.63;;;;;;;17.82;68.97;100319.09;5044042;28;19913;-81
2023/07/02 08:28:56;;;;;;;13.10;5.40;;;;;;;17.77;69.92;100308.44;5036540;28;20025;-76
2023/07/02 08:31:22;;;;;;;12.35;5.25;;;;;;;17.75;67.73;100303.38;5019078;28;20042;-77
2023/07/02 08:33:47;;;;;;;13.90;6.35;;;;;;;17.67;69.64;100321.19;5025596;28;20176;-76
2023/07/02 08:36:16;;;;;;;;;;;;;;;17.66;71.54;100322.31;5040410;28;20099;-77
2023/07/02 08:38:41;;;;;;;13.05;5.47;;;;;;;17.62;71.06;100323.31;5044696;28;19952;-77
2023/07/02 08:41:08;;;;;;;;;;;;;;;17.58;69.28;100319.66;5006761;28;20091;-77
2023/07/02 08:43:35;;;;;;;15.27;5.22;;;;;;;17.58;63.46;100319.66;5025535;28;19923;-78
2023/07/02 08:46:03;;;;;;;15.13;4.82;;;;;;;17.54;65.95;100324.91;5014285;28;20119;-79
2023/07/02 08:48:29;;;;;;;12.02;4.80;;;;;;;17.57;65.68;100324.28;5027902;28;20133;-77
2023/07/02 08:50:55;;;;;;;11.57;5.03;;;;;;;17.77;67.32;100322.78;5020264;28;20102;-75
2023/07/02 08:53:29;;;;;;;10.00;4.65;;;;;;;17.88;65.54;100317.75;5015241;28;20040;-77
2023/07/02 08:55:58;;;;;;;9.65;3.83;;;;;;;17.99;63.34;100330.59;5025253;28;20782;-77
2023/07/02 08:58:24;;;;;;;12.77;4.53;;;;;;;18.06;58.83;100318.44;5029970;28;20037;-78
2023/07/02 09:01:10;;;;;;;;;;;;;;;18.31;63.92;100335.66;5034368;28;20407;-78
2023/07/02 09:03:39;;;;;;;14.48;4.60;;;;;;;18.56;62.85;100326.50;5044194;28;19939;-79
2023/07/02 09:06:10;;;;;;;8.55;3.92;;;;;;;18.79;60.20;100335.09;5044926;28;20094;-77
2023/07/02 09:08:36;;;;;;;10.65;5.20;;;;;;;18.95;57.22;100337.94;5040346;28;20121;-78
2023/07/02 09:11:11;;;;;;;11.63;4.72;;;;;;;19.04;56.66;100330.53;5033738;28;20024;-75
2023/07/02 09:13:52;;;;;;;12.50;4.88;;;;;;;19.21;60.37;100343.88;5021772;28;20025;-78
2023/07/02 09:16:21;;;;;;;12.88;4.88;;;;;;;19.31;57.84;100350.81;5012787;28;20041;-79
2023/07/02 09:19:01;;;;;;;10.65;4.70;;;;;;;19.16;58.19;100365.00;5024962;28;20037;-78
2023/07/02 09:21:28;;;;;;;9.98;4.45;;;;;;;19.04;59.98;100368.50;5025898;28;20214;-75
2023/07/02 09:23:54;;;;;;;9.10;3.88;;;;;;;18.81;64.80;100366.16;5042498;28;20060;-78
2023/07/02 09:26:23;;;;;;;12.70;5.20;;;;;;;18.57;64.32;100376.91;5044790;28;20041;-77
2023/07/02 09:28:49;;;;;;;11.98;5.15;;;;;;;18.30;65.83;100388.28;5010291;28;20136;-79
2023/07/02 09:31:15;;;;;;;;;;;;;;;18.04;57.51;100386.53;5028478;28;20127;-79
2023/07/02 09:33:40;;;;;;;11.05;4.60;;;;;;;17.91;65.60;100390.25;5024801;28;20524;-78
2023/07/02 09:36:06;;;;;;;13.75;4.70;;;;;;;17.65;64.16;100391.13;5048038;28;20078;-78
2023/07/02 09:38:32;;;;;;;10.75;4.28;;;;;;;17.56;66.83;100398.50;5011339;28;20047;-76
2023/07/02 09:40:59;;;;;;;10.27;4.72;;;;;;;17.25;64.32;100401.47;5044377;28;20422;-77
2023/07/02 09:43:26;;;;;;;11.48;4.53;;;;;;;17.18;61.07;100398.47;5021671;28;20060;-76
2023/07/02 09:45:54;;;;;;;12.27;4.78;;;;;;;17.25;66.67;100411.50;5025572;28;20037;-77
2023/07/02 09:48:25;;;;;;;14.25;4.15;;;;;;;17.19;66.63;100411.66;5015318;28;20041;-76
2023/07/02 09:50:51;;;;;;;18.98;5.65;;;;;;;17.18;64.35;100398.47;5022102;28;20064;-77
2023/07/02 09:53:17;;;;;;;;;;;;;;;17.67;68.53;100405.13;5044806;28;20037;-77
2023/07/02 09:55:43;;;;;;;11.73;4.38;;;;;;;17.87;62.53;100392.03;5042058;28;19921;-79
2023/07/02 09:58:09;;;;;;;15.30;4.72;;;;;;;17.98;63.33;100395.94;5051405;28;20035;-76
2023/07/02 10:00:35;;;;;;;;;;;;;;;17.92;57.96;100397.25;5011329;28;20033;-77
2023/07/02 10:03:00;;;;;;;12.68;4.22;;;;;;;17.94;60.27;100403.13;5045943;28;19917;-78
2023/07/02 10:05:26;;;;;;;;;;;;;;;18.00;62.21;100399.13;5021268;28;20037;-76
2023/07/02 10:07:52;;;;;;;14.05;5.38;;;;;;;18.24;64.41;100390.38;5025532;28;20291;-77
2023/07/02 10:10:30;;;;;;;;;;;;;;;18.34;60.88;100405.44;5026581;28;20495;-77
2023/07/02 10:12:57;;;;;;;9.90;4.38;;;;;;;18.40;63.73;100407.63;5014444;28;21401;-76
2023/07/02 10:15:27;;;;;;;12.13;4.97;;;;;;;18.46;66.93;100394.69;5039999;28;20044;-77
2023/07/02 10:17:58;;;;;;;14.18;5.22;;;;;;;18.68;63.73;100405.22;5041055;28;20550;-78
2023/07/02 10:20:38;;;;;;;12.98;4.55;;;;;;;18.76;61.53;100409.78;5024248;28;20033;-79
2023/07/02 10:23:05;;;;;;;9.55;4.32;;;;;;;18.95;62.96;100400.34;5006926;28;20395;-77
2023/07/02 10:25:34;;;;;;;10.45;4.18;;;;;;;19.01;65.85;100407.16;5023222;28;20103;-77
2023/07/02 10:28:01;;;;;;;12.10;4.82;;;;;;;19.02;60.73;100398.69;5023111;28;20041;-76
2023/07/02 10:30:38;;;;;;;13.48;4.25;;;;;;;18.99;58.21;100396.66;5028623;28;20480;-78
2023/07/02 10:33:09;;;;;;;9.50;4.05;;;;;;;18.93;58.83;100410.75;5038746;28;20033;-77
2023/07/02 10:35:35;;;;;;;10.63;4.53;;;;;;;18.88;59.39;100408.25;5021110;28;20056;-78
2023/07/02 10:38:01;;;;;;;14.15;4.43;;;;;;;18.76;62.58;100382.66;5022474;28;20800;-78
2023/07/02 10:40:26;;;;;;;;;;;;;;;18.51;58.13;100405.34;5023992;28;20040;-76
2023/07/02 10:42:52;;;;;;;11.35;4.55;;;;;;;18.45;59.60;100402.03;5020421;28;19916;-77
2023/07/02 10:45:19;;;;;;;7.97;3.88;;;;;;;18.36;57.18;100401.31;5029716;28;20135;-76
2023/07/02 10:47:46;;;;;;;7.82;3.55;;;;;;;18.25;57.66;100409.03;5045553;28;20048;-74
2023/07/02 10:50:20;;;;;;;10.05;3.95;;;;;;;17.95;63.57;100405.53;5017142;28;20025;-78
2023/07/02 10:52:47;;;;;;;9.32;3.40;;;;;;;17.76;57.86;100402.44;5043867;28;20052;-76
2023/07/02 10:55:20;;;;;;;11.52;3.60;;;;;;;17.74;59.34;100408.16;5024959;28;20095;-78
2023/07/02 10:57:47;;;;;;;9.80;4.20;;;;;;;17.57;60.01;100416.34;5026205;28;20071;-76
2023/07/02 11:00:13;;;;;;;12.63;3.60;;;;;;;17.34;61.85;100431.22;5010407;28;20061;-77
2023/07/02 11:02:40;;;;;;;7.35;3.35;;;;;;;17.39;60.82;100436.44;5034477;28;20037;-76
2023/07/02 11:05:07;;;;;;;11.95;3.85;;;;;;;17.60;61.41;100431.94;5036468;28;20037;-76
2023/07/02 11:07:33;;;;;;;15.32;3.38;;;;;;;17.84;58.72;100436.03;5038974;28;20136;-76
2023/07/02 11:09:58;;;;;;;10.48;3.90;;;;;;;18.35;55.54;100428.72;5016641;28;20041;-78
2023/07/02 11:12:31;;;;;;;;;;;;;;;18.75;55.07;100429.88;5022130;28;20087;-77
2023/07/02 11:15:14;;;;;;;8.70;3.28;;;;;;;18.98;56.44;100418.69;5049889;28;19950;-76
2023/07/02 11:17:41;;;;;;;11.68;3.60;;;;;;;19.31;54.56;100421.41;5022920;28;20037;-79
2023/07/02 11:20:11;;;;;;;9.75;3.28;;;;;;;19.48;50.24;100420.41;5018644;28;20683;-76
2023/07/02 11:22:38;;;;;;;10.10;3.17;;;;;;;19.80;56.88;100413.34;5055776;28;20036;-78
2023/07/02 11:25:16;;;;;;;7.53;3.08;;;;;;;20.07;52.74;100406.44;5017266;28;20036;-77
2023/07/02 11:27:43;;;;;;;9.65;2.58;;;;;;;20.03;53.63;100402.78;5028254;28;20024;-77